Cordele, Texas
Current Conditions -  °F | °C
As of 8:51 AM on Monday 22 Dec 2014 (Local Time) from KVCT Reporting Station
Overcast Overcast  
Wind Chill: 63°   Ceiling: 2300
Heat Index: 63°   Visibility: 7mi
Dew Point: 59°   Wind: 8mph
Humidity: 87%   Direction: 230°SW
Pressure: 29.79"   Gusts: NA
Location:  29.0129°N, 96.6883°W
Report Text: KVCT 221451Z 23007KT 7SM OVC023 17/15 A2979 RMK AO2 SLP084 T01720150 53002 $
Loading
Personal Weather Stations






























Interactive Weather Map New forecast layout! Learn more

10-Day Weather Forecast

Advertisements
Track Severe Weather on mobile